Time;durP1;ratioP1;P1;durP2;ratioP2;P2;SDS_P1;SDS_P2;PMS_P1;PMS_P2;Temp;Humidity;BMP_temperature;BMP_pressure;BME280_temperature;BME280_humidity;BME280_pressure;Samples;Min_cycle;Max_cycle;Signal;HPM_P1;HPM_P2
2023/02/01 00:01:10;;;;;;;36.40;23.10;;;;;;;1.57;82.61;100267.22;106317;1259;62064;-92
2023/02/01 00:03:37;;;;;;;37.20;22.80;;;;;;;1.57;82.45;100270.13;106813;1253;60321;-93
2023/02/01 00:06:04;;;;;;;35.20;21.60;;;;;;;1.57;82.49;100266.85;106675;1256;74077;-95
2023/02/01 00:08:32;;;;;;;35.90;21.30;;;;;;;1.58;82.55;100264.77;106371;1253;63532;-94
2023/02/01 00:11:04;;;;;;;36.20;21.80;;;;;;;1.60;82.52;100263.16;106536;1256;74526;-94
2023/02/01 00:13:32;;;;;;;39.00;22.20;;;;;;;1.61;82.43;100261.75;107308;1252;61684;-94
2023/02/01 00:16:12;;;;;;;40.50;22.60;;;;;;;1.63;82.39;100263.24;109342;1258;59050;-94
2023/02/01 00:18:39;;;;;;;43.10;23.90;;;;;;;1.67;82.30;100263.50;109799;1251;73036;-95
2023/02/01 00:21:06;;;;;;;38.40;20.40;;;;;;;1.67;82.08;100263.82;109727;1252;63659;-93
2023/02/01 00:25:02;;;;;;;33.70;22.10;;;;;;;1.69;81.80;100259.98;106395;1292;600346;-94
2023/02/01 00:27:53;;;;;;;34.20;20.00;;;;;;;1.67;81.58;100256.59;108622;1270;62216;-94
2023/02/01 00:30:27;;;;;;;34.80;22.20;;;;;;;1.61;81.57;100249.52;108364;1272;59519;-93
2023/02/01 00:33:00;;;;;;;32.00;20.00;;;;;;;1.57;81.71;100246.53;108729;1267;72923;-95
2023/02/01 00:35:29;;;;;;;33.80;20.50;;;;;;;1.57;81.60;100248.25;108756;1267;63792;-94
2023/02/01 00:37:59;;;;;;;31.30;19.60;;;;;;;1.55;81.71;100241.94;108295;1265;606441;-92
2023/02/01 00:40:30;;;;;;;30.70;20.30;;;;;;;1.52;81.86;100237.22;109390;1257;58579;-93
2023/02/01 00:42:59;;;;;;;34.70;22.60;;;;;;;1.55;82.05;100244.02;109370;1257;60291;-95
2023/02/01 00:45:27;;;;;;;37.40;24.10;;;;;;;1.57;82.05;100244.65;106709;1262;72205;-93
2023/02/01 00:48:00;;;;;;;37.80;24.10;;;;;;;1.56;81.66;100243.98;106142;1258;64077;-95
2023/02/01 00:50:29;;;;;;;36.00;23.10;;;;;;;1.54;81.55;100239.55;106390;1258;72433;-93
2023/02/01 00:52:58;;;;;;;52.60;29.60;;;;;;;1.52;81.35;100236.70;106558;1258;60888;-93
2023/02/01 00:55:29;;;;;;;38.00;22.00;;;;;;;1.49;81.24;100232.83;105965;1260;60162;-94
2023/02/01 00:57:58;;;;;;;36.40;23.70;;;;;;;1.45;81.42;100232.77;106203;1254;73031;-96
2023/02/01 01:00:26;;;;;;;43.00;26.20;;;;;;;1.42;81.68;100226.48;106525;1254;65275;-94
2023/02/01 01:02:56;;;;;;;37.60;24.00;;;;;;;1.42;81.83;100224.92;107408;1254;74366;-94
2023/02/01 01:05:27;;;;;;;34.70;21.80;;;;;;;1.43;82.04;100223.66;107744;1254;61371;-91
2023/02/01 01:07:56;;;;;;;37.90;23.80;;;;;;;1.47;82.04;100220.13;106741;1256;60271;-95
2023/02/01 01:10:24;;;;;;;45.00;27.00;;;;;;;1.49;81.92;100221.80;106355;1260;73199;-93
2023/02/01 01:12:53;;;;;;;42.40;24.60;;;;;;;1.51;81.89;100224.98;106432;1257;64579;-92
2023/02/01 01:15:21;;;;;;;40.80;23.40;;;;;;;1.53;81.63;100222.70;107106;1257;71648;-93
2023/02/01 01:17:51;;;;;;;42.40;25.00;;;;;;;1.51;81.44;100218.81;106754;1253;60514;-94
2023/02/01 01:20:21;;;;;;;42.60;24.10;;;;;;;1.47;81.30;100218.23;109456;1254;59981;-94
2023/02/01 01:22:50;;;;;;;41.40;25.20;;;;;;;1.43;81.11;100219.02;109663;1254;71772;-93
2023/02/01 01:25:19;;;;;;;38.30;24.10;;;;;;;1.37;81.16;100216.96;106725;1257;64114;-94
2023/02/01 01:27:48;;;;;;;40.00;23.00;;;;;;;1.31;81.38;100211.30;106681;1255;73760;-92
2023/02/01 01:30:17;;;;;;;40.80;24.30;;;;;;;1.27;81.64;100211.91;106538;1254;60222;-94
2023/02/01 01:32:46;;;;;;;41.80;25.60;;;;;;;1.26;81.82;100214.53;106522;1260;60787;-94
2023/02/01 01:35:15;;;;;;;37.00;23.70;;;;;;;1.26;81.89;100215.56;106369;1267;73485;-94
2023/02/01 01:37:44;;;;;;;37.90;24.30;;;;;;;1.28;82.07;100220.34;107078;1256;63342;-92
2023/02/01 01:40:13;;;;;;;42.20;24.00;;;;;;;1.31;82.19;100221.79;108884;1254;72189;-93
2023/02/01 01:42:42;;;;;;;46.80;24.60;;;;;;;1.32;81.71;100220.75;108923;1258;58497;-95
2023/02/01 01:45:29;;;;;;;53.10;27.40;;;;;;;1.30;81.49;100223.89;106691;1257;60094;-96
2023/02/01 01:48:02;;;;;;;59.10;32.50;;;;;;;1.28;81.36;100220.16;106655;1256;72683;-95
2023/02/01 01:50:33;;;;;;;55.40;29.70;;;;;;;1.25;81.21;100222.31;105944;1259;63192;-96
2023/02/01 01:53:04;;;;;;;51.70;28.20;;;;;;;1.22;81.05;100221.54;105984;1259;73710;-95
2023/02/01 01:55:38;;;;;;;45.10;24.90;;;;;;;1.17;81.07;100222.70;106017;1257;62170;-94
2023/02/01 01:58:12;;;;;;;46.50;25.40;;;;;;;1.11;81.10;100223.38;105775;1253;61179;-92
2023/02/01 02:00:41;;;;;;;34.10;22.30;;;;;;;1.07;81.37;100223.67;106112;1255;72957;-94
2023/02/01 02:03:37;;;;;;;38.50;24.40;;;;;;;1.06;81.64;100221.80;106853;1257;63926;-94
2023/02/01 02:06:19;;;;;;;39.60;23.70;;;;;;;1.09;81.98;100223.63;107050;1257;73420;-92
2023/02/01 02:08:47;;;;;;;38.90;23.40;;;;;;;1.11;81.93;100224.25;109513;1254;58536;-93
2023/02/01 02:11:16;;;;;;;51.80;27.20;;;;;;;1.12;81.90;100217.16;108859;1254;60280;-92
2023/02/01 02:13:48;;;;;;;37.40;23.10;;;;;;;1.15;81.98;100215.86;106008;1254;72985;-95
2023/02/01 02:16:22;;;;;;;39.10;24.60;;;;;;;1.15;81.80;100217.23;106250;1259;63943;-95
2023/02/01 02:18:56;;;;;;;36.20;22.40;;;;;;;1.15;81.73;100216.21;105894;1255;74188;-94
2023/02/01 02:21:42;;;;;;;42.70;25.40;;;;;;;1.13;81.56;100217.99;106328;1253;60560;-91
2023/02/01 02:24:29;;;;;;;40.20;24.70;;;;;;;1.10;81.57;100218.25;105887;1254;61052;-95
2023/02/01 02:27:31;;;;;;;42.70;24.60;;;;;;;1.05;81.50;100221.48;106035;1254;72982;-92
2023/02/01 02:30:18;;;;;;;43.40;23.40;;;;;;;1.00;81.51;100218.52;105510;1261;64805;-96
2023/02/01 02:33:18;;;;;;;47.00;25.80;;;;;;;0.99;81.67;100219.58;105479;1264;73611;-95
2023/02/01 02:36:12;;;;;;;44.30;26.00;;;;;;;0.98;81.77;100214.78;105297;1260;59671;-94
2023/02/01 02:38:43;;;;;;;43.20;26.70;;;;;;;0.99;81.94;100208.05;105665;1263;60299;-94
2023/02/01 02:41:12;;;;;;;43.50;25.10;;;;;;;0.98;81.82;100204.14;105536;1261;72675;-93
2023/02/01 02:54:44;;;;;;;46.60;23.60;;;;;;;0.75;81.38;100200.95;105462;1261;61752;-95
2023/02/01 02:55:25;;;;;;;38.80;23.40;;;;;;;0.56;81.97;100202.46;105762;1261;73067;-93
2023/02/01 03:06:18;;;;;;;39.60;23.50;;;;;;;0.45;81.73;100204.45;108262;1263;60122;-94
2023/02/01 03:10:04;;;;;;;41.30;26.10;;;;;;;0.43;81.50;100204.69;102796;1295;613687;-92
2023/02/01 03:15:22;;;;;;;38.10;24.40;;;;;;;0.27;81.07;100198.71;104855;1275;60355;-94
2023/02/01 03:17:50;;;;;;;38.50;23.60;;;;;;;0.19;80.79;100194.27;105059;1269;73692;-96
2023/02/01 03:20:19;;;;;;;37.80;23.50;;;;;;;0.10;80.84;100192.27;107299;1260;63540;-94
2023/02/01 03:22:47;;;;;;;35.00;22.40;;;;;;;0.01;80.87;100187.66;108137;1257;787168;-93
2023/02/01 03:25:27;;;;;;;38.00;22.00;;;;;;;-0.08;81.56;100186.50;107523;1257;59747;-93
2023/02/01 03:28:07;;;;;;;38.20;20.70;;;;;;;-0.13;81.79;100191.95;106937;1260;60159;-94
2023/02/01 03:30:36;;;;;;;38.90;22.60;;;;;;;-0.18;81.91;100191.02;108947;1258;73024;-93
2023/02/01 03:33:13;;;;;;;46.60;25.10;;;;;;;-0.23;81.91;100192.67;107603;1258;64059;-94
2023/02/01 03:35:57;;;;;;;45.20;25.20;;;;;;;-0.31;81.87;100189.07;107702;1266;73622;-95
2023/02/01 03:38:53;;;;;;;41.10;22.30;;;;;;;-0.31;82.29;100194.05;107343;1260;61114;-94
2023/02/01 03:42:11;;;;;;;40.70;24.10;;;;;;;-0.41;82.11;100188.27;108664;1257;59603;-94
2023/02/01 03:45:03;;;;;;;39.70;22.90;;;;;;;-0.41;81.67;100191.20;108691;1257;73572;-94
2023/02/01 03:47:56;;;;;;;40.40;22.90;;;;;;;-0.46;81.39;100189.75;107349;1254;64248;-94
2023/02/01 03:50:30;;;;;;;41.90;22.00;;;;;;;-0.45;81.23;100191.44;108506;1254;72039;-94
2023/02/01 03:53:21;;;;;;;50.00;23.30;;;;;;;-0.47;81.21;100192.16;108758;1254;59650;-94
2023/02/01 03:55:59;;;;;;;37.20;21.50;;;;;;;-0.49;81.31;100197.54;108267;1256;60671;-93
2023/02/01 03:59:05;;;;;;;38.40;23.10;;;;;;;-0.52;81.43;100197.59;108904;1254;73084;-93
2023/02/01 04:01:50;;;;;;;35.60;20.70;;;;;;;-0.58;81.61;100196.00;108460;1260;63016;-95
2023/02/01 04:04:30;;;;;;;44.80;22.60;;;;;;;-0.62;81.39;100192.32;107883;1257;71975;-95
2023/02/01 04:07:10;;;;;;;40.10;21.30;;;;;;;-0.67;81.78;100199.28;108075;1257;61535;-93
2023/02/01 04:09:56;;;;;;;44.90;21.00;;;;;;;-0.72;82.67;100196.30;108820;1257;62386;-94
2023/02/01 04:12:40;;;;;;;47.60;21.70;;;;;;;-0.72;83.58;100198.70;108207;1261;75105;-95
2023/02/01 04:15:08;;;;;;;47.80;22.50;;;;;;;-0.67;84.19;100204.61;107665;1257;64606;-96
2023/02/01 04:17:44;;;;;;;43.20;22.50;;;;;;;-0.61;84.55;100209.64;107730;1257;72315;-96
2023/02/01 04:20:20;;;;;;;37.40;21.20;;;;;;;-0.55;84.67;100205.58;107792;1263;59656;-96
2023/02/01 04:22:53;;;;;;;45.80;22.30;;;;;;;-0.52;84.67;100212.38;108996;1260;59543;-95
2023/02/01 04:26:33;;;;;;;46.60;26.50;;;;;;;-0.50;84.75;100221.41;109153;1254;71799;-95
2023/02/01 04:30:01;;;;;;;48.60;23.80;;;;;;;-0.50;84.43;100225.73;109559;1253;65267;-94
2023/02/01 04:32:50;;;;;;;45.20;23.60;;;;;;;-0.52;84.46;100229.36;109602;1253;72668;-95
2023/02/01 04:35:36;;;;;;;47.10;23.20;;;;;;;-0.47;84.74;100234.24;109644;1254;59829;-95
2023/02/01 04:38:09;;;;;;;38.10;21.40;;;;;;;-0.46;84.68;100228.05;109323;1254;59640;-93
2023/02/01 04:41:47;;;;;;;49.80;22.20;;;;;;;-0.34;85.14;100228.49;109173;1260;71455;-96
2023/02/01 04:45:10;;;;;;;50.10;21.80;;;;;;;-0.24;85.29;100233.76;109098;1254;64293;-96
2023/02/01 09:54:53;;;;;;;24.20;15.90;;;;;;;3.26;75.54;100242.46;105470;1295;62269;31
2023/02/01 09:59:01;;;;;;;22.20;15.00;;;;;;;3.21;75.04;100246.08;105827;1292;71329;-95
2023/02/01 10:01:37;;;;;;;23.40;15.70;;;;;;;3.20;74.94;100248.57;105790;1293;61036;-93
2023/02/01 10:04:24;;;;;;;25.50;16.90;;;;;;;3.15;74.91;100245.44;105495;1293;59126;-92
2023/02/01 10:21:43;;;;;;;22.80;14.20;;;;;;;2.74;75.47;100249.45;97011;1287;60654;-92
2023/02/01 10:32:28;;;;;;;28.80;18.80;;;;;;;2.77;75.93;100242.44;102146;1292;71440;-94
2023/02/01 10:36:17;;;;;;;24.90;17.20;;;;;;;2.82;76.03;100237.45;88286;1291;58159;-92
2023/02/01 10:56:53;;;;;;;19.20;13.20;;;;;;;2.48;75.84;100238.73;103031;1286;61030;-95
2023/02/01 17:43:18;;;;;;;;;;;;;;;;;;;;;
2023/02/01 17:47:03;;;;;;;;;;;;;;;;;;;;;
2023/02/01 17:53:25;;;;;;;37.00;22.30;;;;;;;0.17;91.15;100319.11;110955;1241;59773;-95
2023/02/01 17:57:19;;;;;;;40.40;23.00;;;;;;;0.19;91.59;100311.86;111354;1243;59218;-96
2023/02/01 18:03:35;;;;;;;41.20;23.10;;;;;;;0.30;91.78;100313.66;111774;1238;62982;-95
2023/02/01 18:07:25;;;;;;;42.80;21.90;;;;;;;0.35;91.77;100303.73;111734;1240;71975;-94
2023/02/01 18:10:03;;;;;;;48.10;28.90;;;;;;;0.42;91.71;100309.09;111536;1241;58264;-95
2023/02/01 18:12:41;;;;;;;49.50;24.10;;;;;;;0.50;91.67;100309.24;111346;1240;60390;-95
2023/02/01 18:15:32;;;;;;;49.90;26.30;;;;;;;0.54;91.57;100308.29;110922;1244;71961;-96
2023/02/01 18:18:19;;;;;;;55.30;30.60;;;;;;;0.58;91.26;100304.92;110531;1243;62826;-94
2023/02/01 18:21:42;;;;;;;61.40;36.00;;;;;;;0.60;91.02;100306.77;110658;1243;72134;-95
2023/02/01 18:24:57;;;;;;;48.60;26.80;;;;;;;0.62;90.98;100303.28;110870;1246;62193;-96
2023/02/01 19:19:26;;;;;;;35.90;21.30;;;;;;;0.50;89.98;100303.23;111806;1238;60560;-94
2023/02/01 19:24:00;;;;;;;;;;;;;;;;;;;;;
2023/02/01 19:27:09;;;;;;;40.70;23.00;;;;;;;0.39;90.29;100302.61;111651;1237;63659;-95
2023/02/01 19:45:08;;;;;;;44.30;24.50;;;;;;;0.29;91.49;100300.27;110437;1241;62746;-94
2023/02/01 19:49:11;;;;;;;34.30;19.90;;;;;;;0.29;91.62;100288.76;110170;1251;71212;-93
2023/02/01 19:52:16;;;;;;;37.50;21.70;;;;;;;0.24;91.50;100280.79;110099;1251;61097;-94
2023/02/01 19:55:13;;;;;;;48.30;25.60;;;;;;;0.18;91.51;100279.21;109382;1257;59148;-94
2023/02/01 19:58:09;;;;;;;;;;;;;;;0.17;91.66;100280.44;109585;1257;73265;-93
2023/02/01 20:00:54;;;;;;;45.30;23.50;;;;;;;0.13;91.64;100281.38;109574;1257;63936;-93
2023/02/01 20:03:40;;;;;;;46.70;23.40;;;;;;;0.07;91.53;100284.63;109663;1256;71955;-95
2023/02/01 20:06:28;;;;;;;54.60;25.60;;;;;;;0.02;91.81;100282.16;109410;1257;60531;-95
2023/02/01 21:20:16;;;;;;;46.30;24.30;;;;;;;-0.16;94.08;100301.44;106715;1285;58842;-94
2023/02/01 21:27:31;;;;;;;48.90;25.40;;;;;;;-0.13;94.26;100302.23;106116;1282;62886;-93
2023/02/01 21:29:59;;;;;;;44.90;24.60;;;;;;;-0.09;94.35;100301.65;104827;1281;73754;-94
2023/02/01 21:32:36;;;;;;;34.90;20.00;;;;;;;-0.03;94.22;100300.64;105109;1283;61155;-93
2023/02/01 21:35:06;;;;;;;42.10;21.60;;;;;;;0.03;94.51;100297.42;104921;1283;60580;-94
2023/02/01 21:37:42;;;;;;;45.00;24.30;;;;;;;0.08;93.98;100296.45;104506;1286;71664;-94
2023/02/01 21:40:24;;;;;;;42.50;23.70;;;;;;;0.14;94.02;100290.63;104752;1283;64817;-93
2023/02/01 21:42:53;;;;;;;37.40;20.60;;;;;;;0.22;93.89;100293.05;104815;1283;72976;-94
